Time;durP1;ratioP1;P1;durP2;ratioP2;P2;SDS_P1;SDS_P2;PMS_P1;PMS_P2;Temp;Humidity;BMP_temperature;BMP_pressure;BME280_temperature;BME280_humidity;BME280_pressure;Samples;Min_cycle;Max_cycle;Signal;HPM_P1;HPM_P2
2023/04/23 00:00:42;;;;;;;10.87;7.00;;;7.20;99.90;;;;;;5055083;28;20349;-85
2023/04/23 00:03:09;;;;;;;7.87;6.30;;;7.30;99.90;;;;;;5055482;27;20241;-85
2023/04/23 00:05:36;;;;;;;12.10;7.17;;;7.30;99.90;;;;;;5069749;27;21023;-85
2023/04/23 00:08:02;;;;;;;11.10;6.63;;;7.30;99.90;;;;;;5054808;27;20270;-86
2023/04/23 00:10:28;;;;;;;10.50;8.47;;;7.40;99.90;;;;;;5054367;27;20224;-85
2023/04/23 00:12:54;;;;;;;9.03;6.97;;;7.40;99.90;;;;;;5054579;28;20189;-86
2023/04/23 00:15:21;;;;;;;10.47;6.23;;;7.30;99.90;;;;;;5052101;28;20227;-86
2023/04/23 00:17:47;;;;;;;9.93;7.60;;;7.30;99.90;;;;;;5052673;28;20225;-85
2023/04/23 00:20:15;;;;;;;11.30;7.30;;;7.30;99.90;;;;;;5062336;28;20229;-85
2023/04/23 00:22:41;;;;;;;7.80;5.00;;;7.30;99.90;;;;;;5053403;28;21065;-86
2023/04/23 00:25:08;;;;;;;15.57;10.37;;;7.30;99.90;;;;;;5054222;28;20563;-85
2023/04/23 00:27:34;;;;;;;15.57;9.93;;;7.20;99.90;;;;;;5037275;28;20190;-85
2023/04/23 00:30:02;;;;;;;8.30;6.07;;;7.20;99.90;;;;;;5050386;28;20994;-85
2023/04/23 00:32:27;;;;;;;11.33;7.77;;;7.20;99.90;;;;;;5054544;27;20236;-85
2023/04/23 00:34:54;;;;;;;16.23;9.33;;;7.30;99.90;;;;;;5058622;28;20225;-85
2023/04/23 00:37:20;;;;;;;14.10;7.17;;;7.30;99.90;;;;;;5058956;27;20221;-85
2023/04/23 00:39:45;;;;;;;8.97;6.10;;;7.30;99.90;;;;;;5058461;28;20197;-85
2023/04/23 00:42:11;;;;;;;10.80;8.03;;;7.30;99.90;;;;;;5056212;28;20316;-85
2023/04/23 00:44:37;;;;;;;10.83;6.50;;;7.30;99.90;;;;;;5060296;28;20217;-85
2023/04/23 00:47:05;;;;;;;14.00;10.00;;;7.20;99.90;;;;;;5058075;27;20594;-85
2023/04/23 00:49:31;;;;;;;14.40;7.77;;;7.10;99.90;;;;;;5056005;28;20224;-85
2023/04/23 00:51:57;;;;;;;9.83;7.17;;;7.00;99.90;;;;;;5058061;28;20217;-85
2023/04/23 00:54:23;;;;;;;17.73;8.07;;;7.00;99.90;;;;;;5056117;28;20681;-85
2023/04/23 00:56:49;;;;;;;10.90;6.80;;;7.00;99.90;;;;;;5047341;28;20214;-85
2023/04/23 00:59:15;;;;;;;11.17;7.77;;;6.90;99.90;;;;;;5058540;28;20221;-85
2023/04/23 01:01:41;;;;;;;15.07;7.80;;;6.90;99.90;;;;;;5055378;28;20256;-85
2023/04/23 01:04:08;;;;;;;8.47;7.40;;;7.00;99.90;;;;;;5055527;28;20534;-85
2023/04/23 01:06:34;;;;;;;8.30;5.03;;;7.00;99.90;;;;;;5048116;28;20210;-85
2023/04/23 01:09:00;;;;;;;12.57;6.77;;;7.00;99.90;;;;;;5054965;28;20221;-84
2023/04/23 01:11:26;;;;;;;13.90;11.07;;;7.00;99.90;;;;;;5056722;28;20226;-85
2023/04/23 01:13:52;;;;;;;17.60;8.50;;;7.00;99.90;;;;;;5056885;28;20237;-85
2023/04/23 01:16:18;;;;;;;12.93;6.97;;;7.00;99.90;;;;;;5053816;28;20567;-85
2023/04/23 01:18:44;;;;;;;17.47;8.00;;;6.90;99.90;;;;;;5047677;28;20274;-85
2023/04/23 01:21:11;;;;;;;12.70;6.73;;;6.90;99.90;;;;;;5056236;28;20264;-85
2023/04/23 01:23:37;;;;;;;11.43;7.20;;;6.90;99.90;;;;;;5055476;28;20241;-86
2023/04/23 01:26:03;;;;;;;10.97;6.60;;;6.90;99.90;;;;;;5057201;28;20223;-85
2023/04/23 01:28:29;;;;;;;14.73;7.47;;;6.90;99.90;;;;;;5046927;28;20218;-84
2023/04/23 01:30:55;;;;;;;20.67;8.90;;;7.00;99.90;;;;;;5048725;28;20193;-86
2023/04/23 01:33:21;;;;;;;5.73;4.93;;;7.00;99.90;;;;;;5052064;28;20719;-85
2023/04/23 01:35:48;;;;;;;12.63;6.87;;;7.00;99.90;;;;;;5052132;28;20344;-85
2023/04/23 01:38:14;;;;;;;10.23;6.70;;;7.00;99.90;;;;;;5054092;28;20359;-85
2023/04/23 01:40:40;;;;;;;10.97;7.17;;;6.90;99.90;;;;;;5054881;28;20655;-85
2023/04/23 01:43:06;;;;;;;15.20;8.03;;;6.90;99.90;;;;;;5050697;28;20824;-86
2023/04/23 01:45:32;;;;;;;5.90;5.33;;;6.90;99.90;;;;;;5037977;28;20641;-85
2023/04/23 01:48:01;;;;;;;6.70;5.47;;;6.90;99.90;;;;;;5056815;28;20321;-85
2023/04/23 01:50:28;;;;;;;11.40;7.87;;;6.90;99.90;;;;;;5057594;27;20225;-85
2023/04/23 01:52:54;;;;;;;8.20;6.20;;;6.90;99.90;;;;;;5055244;28;20221;-85
2023/04/23 01:55:20;;;;;;;11.53;6.40;;;6.90;99.90;;;;;;5055631;27;20670;-86
2023/04/23 01:57:46;;;;;;;16.07;8.73;;;6.90;99.90;;;;;;5052582;28;20194;-86
2023/04/23 02:00:13;;;;;;;11.70;6.60;;;6.80;99.90;;;;;;5052645;28;20224;-85
2023/04/23 02:02:41;;;;;;;11.30;8.00;;;6.90;99.90;;;;;;5051162;28;20226;-84
2023/04/23 02:05:13;;;;;;;10.23;7.03;;;6.90;99.90;;;;;;5053606;28;20217;-85
2023/04/23 02:07:40;;;;;;;8.57;6.97;;;6.80;99.90;;;;;;5051022;28;20217;-86
2023/04/23 02:10:07;;;;;;;9.73;6.93;;;6.80;99.90;;;;;;5055398;28;20215;-85
2023/04/23 02:12:33;;;;;;;8.83;7.23;;;6.80;99.90;;;;;;5056053;28;20574;-85
2023/04/23 02:15:01;;;;;;;8.00;6.93;;;6.80;99.90;;;;;;5056031;27;20226;-85
2023/04/23 02:17:28;;;;;;;13.50;6.87;;;6.80;99.90;;;;;;5053369;28;20286;-84
2023/04/23 02:19:54;;;;;;;5.07;4.63;;;6.80;99.90;;;;;;5056331;28;20326;-84
2023/04/23 02:22:23;;;;;;;7.90;6.13;;;6.70;99.90;;;;;;5056068;28;20712;-85
2023/04/23 02:24:50;;;;;;;10.93;7.20;;;6.70;99.90;;;;;;5054386;28;20186;-85
2023/04/23 02:27:16;;;;;;;14.27;9.03;;;6.80;99.90;;;;;;5054130;28;20462;-84
2023/04/23 02:29:41;;;;;;;14.90;10.43;;;6.80;99.90;;;;;;5055078;28;20920;-85
2023/04/23 02:32:07;;;;;;;7.67;6.97;;;6.70;99.90;;;;;;5052974;28;20220;-85
2023/04/23 02:34:33;;;;;;;8.33;6.60;;;6.70;99.90;;;;;;5053937;28;20220;-85
2023/04/23 02:36:59;;;;;;;7.90;6.87;;;6.60;99.90;;;;;;5055749;28;20197;-84
2023/04/23 02:39:25;;;;;;;11.60;6.57;;;6.60;99.90;;;;;;5054287;28;20193;-85
2023/04/23 02:41:50;;;;;;;10.33;8.83;;;6.80;99.90;;;;;;5053942;27;21020;-84
2023/04/23 02:44:16;;;;;;;9.47;7.87;;;6.70;99.90;;;;;;5055914;27;20698;-84
2023/04/23 02:46:42;;;;;;;17.90;8.93;;;6.70;99.90;;;;;;5038637;28;20947;-85
2023/04/23 02:49:08;;;;;;;9.80;8.50;;;6.70;99.90;;;;;;5056627;27;20205;-85
2023/04/23 02:51:33;;;;;;;11.90;5.40;;;6.70;99.90;;;;;;5057924;28;20204;-85
2023/04/23 02:53:59;;;;;;;8.67;6.20;;;6.70;99.90;;;;;;5054746;28;21063;-85
2023/04/23 02:56:25;;;;;;;15.93;8.53;;;6.70;99.90;;;;;;5055391;27;21021;-84
2023/04/23 02:58:51;;;;;;;12.87;11.30;;;6.70;99.90;;;;;;5054214;28;21053;-84
2023/04/23 03:01:16;;;;;;;9.77;7.40;;;6.70;99.90;;;;;;5044578;27;20206;-84
2023/04/23 03:03:42;;;;;;;11.23;7.67;;;6.80;99.90;;;;;;5045009;28;20256;-84
2023/04/23 03:06:08;;;;;;;42.53;7.90;;;6.80;99.90;;;;;;5027677;28;20249;-85
2023/04/23 03:08:34;;;;;;;11.83;6.60;;;7.00;99.90;;;;;;5054424;27;20219;-84
2023/04/23 03:11:00;;;;;;;21.27;7.53;;;7.10;99.90;;;;;;5055478;28;20229;-84
2023/04/23 03:13:26;;;;;;;10.00;6.80;;;7.10;99.90;;;;;;5055263;28;20797;-84
2023/04/23 03:15:53;;;;;;;5.00;3.67;;;7.10;99.90;;;;;;5052934;28;20212;-85
2023/04/23 03:18:19;;;;;;;6.50;5.10;;;7.10;99.90;;;;;;5055315;28;20225;-84
2023/04/23 03:20:47;;;;;;;22.83;7.00;;;7.10;99.90;;;;;;5045595;28;20267;-86
2023/04/23 03:23:13;;;;;;;11.53;6.70;;;7.20;99.90;;;;;;5054635;28;20217;-84
2023/04/23 03:25:39;;;;;;;6.90;5.70;;;7.10;99.90;;;;;;5056499;28;20225;-84
2023/04/23 03:28:05;;;;;;;6.90;5.87;;;7.10;99.90;;;;;;5053419;28;20554;-85
2023/04/23 03:30:31;;;;;;;8.17;5.10;;;7.10;99.90;;;;;;5061942;28;20304;-85
2023/04/23 03:32:57;;;;;;;10.10;5.17;;;7.20;99.90;;;;;;5054471;28;20217;-86
2023/04/23 03:35:23;;;;;;;23.27;6.90;;;7.20;99.90;;;;;;5054108;28;20642;-84
2023/04/23 03:37:49;;;;;;;9.23;6.83;;;7.30;99.90;;;;;;5053206;28;20225;-86
2023/04/23 03:40:15;;;;;;;7.37;5.73;;;7.40;99.90;;;;;;5054549;28;20190;-84
2023/04/23 03:42:41;;;;;;;14.77;8.77;;;7.40;99.90;;;;;;5053648;28;20247;-84
2023/04/23 03:45:07;;;;;;;15.50;8.93;;;7.40;99.90;;;;;;5051602;28;20341;-84
2023/04/23 03:47:33;;;;;;;9.33;6.43;;;7.50;99.90;;;;;;5053912;28;20213;-84
2023/04/23 03:49:58;;;;;;;14.83;7.90;;;7.50;99.90;;;;;;5051915;28;20283;-84
2023/04/23 03:52:24;;;;;;;13.60;10.40;;;7.60;99.90;;;;;;5053755;27;20648;-84
2023/04/23 03:54:50;;;;;;;13.87;9.80;;;7.60;99.90;;;;;;5050993;28;20189;-85
2023/04/23 03:57:16;;;;;;;12.60;9.10;;;7.60;99.90;;;;;;5051135;28;20225;-83
2023/04/23 03:59:41;;;;;;;15.40;9.97;;;7.70;99.90;;;;;;5049960;28;20209;-84
2023/04/23 04:02:07;;;;;;;12.20;7.73;;;7.70;99.90;;;;;;5050869;27;20233;-84
2023/04/23 04:04:33;;;;;;;22.83;7.77;;;7.70;99.90;;;;;;5043873;28;21112;-84
2023/04/23 04:06:59;;;;;;;17.37;11.27;;;7.70;99.90;;;;;;5052602;28;20720;-85
2023/04/23 04:09:26;;;;;;;12.30;11.27;;;7.70;99.90;;;;;;5052392;28;20762;-84
2023/04/23 04:11:55;;;;;;;8.93;8.13;;;7.80;99.90;;;;;;5051261;28;20978;-84
2023/04/23 04:14:22;;;;;;;12.33;9.93;;;7.80;99.90;;;;;;5053054;28;20306;-84
2023/04/23 04:16:48;;;;;;;13.27;8.30;;;7.80;99.90;;;;;;5067091;28;20679;-84
2023/04/23 04:19:14;;;;;;;15.97;10.57;;;7.80;99.90;;;;;;5050434;28;20704;-84
2023/04/23 04:21:39;;;;;;;10.70;7.77;;;7.90;99.90;;;;;;5053633;28;20213;-84
2023/04/23 04:24:05;;;;;;;18.97;11.97;;;7.90;99.90;;;;;;5049582;27;20230;-84
2023/04/23 04:26:33;;;;;;;14.00;12.07;;;7.90;99.90;;;;;;5054455;27;20240;-84
2023/04/23 04:29:00;;;;;;;22.57;10.07;;;7.90;99.90;;;;;;5050691;28;20264;-85
2023/04/23 04:31:27;;;;;;;11.77;6.93;;;7.90;99.90;;;;;;5049096;28;20225;-84
2023/04/23 04:33:56;;;;;;;19.07;12.57;;;8.00;99.90;;;;;;5053323;28;20312;-85
2023/04/23 04:36:27;;;;;;;22.03;10.53;;;7.90;99.90;;;;;;5085058;28;20776;-84
2023/04/23 04:38:59;;;;;;;16.70;11.63;;;7.90;99.90;;;;;;5052878;28;20354;-85
2023/04/23 04:41:26;;;;;;;19.33;12.93;;;7.90;99.90;;;;;;5054152;28;20230;-84
2023/04/23 04:43:53;;;;;;;18.20;11.33;;;7.90;99.90;;;;;;5052489;28;20221;-85
2023/04/23 04:46:22;;;;;;;20.27;14.43;;;8.00;99.90;;;;;;5053209;28;20229;-85
2023/04/23 04:48:48;;;;;;;17.70;11.47;;;8.00;99.90;;;;;;5054148;28;20689;-84
2023/04/23 04:51:14;;;;;;;12.47;8.90;;;8.00;99.90;;;;;;5051382;28;20230;-84
2023/04/23 04:53:39;;;;;;;24.87;12.57;;;8.00;99.90;;;;;;5053613;27;20295;-85
2023/04/23 04:56:06;;;;;;;13.67;9.80;;;8.10;99.90;;;;;;5052601;28;20236;-85
2023/04/23 04:58:32;;;;;;;21.70;12.97;;;8.10;99.90;;;;;;5052982;28;20224;-84
2023/04/23 05:01:00;;;;;;;11.73;8.87;;;8.20;99.90;;;;;;5051025;28;20225;-85
2023/04/23 05:03:26;;;;;;;23.57;13.30;;;8.20;99.90;;;;;;5051971;28;20241;-85
2023/04/23 05:05:55;;;;;;;21.37;9.90;;;8.30;99.90;;;;;;5052247;28;21057;-84
2023/04/23 05:08:21;;;;;;;25.93;13.70;;;8.30;99.90;;;;;;5050854;28;20218;-83
2023/04/23 05:10:49;;;;;;;22.37;13.63;;;8.30;99.90;;;;;;5050689;28;20687;-84
2023/04/23 05:13:15;;;;;;;24.27;13.17;;;8.30;99.90;;;;;;5048464;28;20643;-85
2023/04/23 05:15:41;;;;;;;22.47;11.90;;;8.40;99.90;;;;;;5052461;28;20268;-83
2023/04/23 05:18:09;;;;;;;17.87;11.27;;;8.40;99.90;;;;;;5051734;28;20243;-83
2023/04/23 05:20:35;;;;;;;23.00;14.80;;;8.40;99.90;;;;;;5053276;28;20308;-84
2023/04/23 05:23:01;;;;;;;17.87;14.03;;;8.40;99.90;;;;;;5053147;27;20309;-84
2023/04/23 05:25:33;;;;;;;22.53;15.07;;;8.50;99.90;;;;;;5055211;27;20256;-84
2023/04/23 05:27:59;;;;;;;18.07;12.63;;;8.50;99.90;;;;;;5054506;27;20316;-84
2023/04/23 05:30:27;;;;;;;21.13;13.27;;;8.50;99.90;;;;;;5052718;28;20220;-84
2023/04/23 05:32:53;;;;;;;19.57;11.10;;;8.60;99.90;;;;;;5052799;28;20706;-84
2023/04/23 05:35:19;;;;;;;14.73;13.23;;;8.60;99.90;;;;;;5054505;27;20282;-84
2023/04/23 05:37:45;;;;;;;23.57;14.83;;;8.60;99.90;;;;;;5055017;28;20386;-84
2023/04/23 05:40:10;;;;;;;20.23;11.00;;;8.70;99.90;;;;;;5045493;28;20276;-84
2023/04/23 05:42:37;;;;;;;16.20;11.30;;;8.70;99.90;;;;;;5055600;28;20569;-85
2023/04/23 05:45:03;;;;;;;15.70;12.70;;;8.80;99.90;;;;;;5055650;28;20691;-84
2023/04/23 05:47:29;;;;;;;14.43;9.67;;;8.80;99.90;;;;;;5054838;28;20225;-84
2023/04/23 05:49:58;;;;;;;17.97;10.63;;;8.90;99.90;;;;;;5055883;28;20225;-84
2023/04/23 05:52:24;;;;;;;16.93;10.17;;;8.90;99.90;;;;;;5055202;28;20228;-84
2023/04/23 05:54:51;;;;;;;13.97;11.63;;;8.90;99.90;;;;;;5054620;28;20567;-84
2023/04/23 05:57:17;;;;;;;27.87;12.60;;;9.00;99.90;;;;;;5045196;28;20686;-84
2023/04/23 05:59:42;;;;;;;18.50;11.97;;;9.10;99.90;;;;;;5055089;27;20213;-85
2023/04/23 06:02:09;;;;;;;15.37;9.67;;;9.10;99.90;;;;;;5053736;28;20290;-84
2023/04/23 06:04:36;;;;;;;17.47;9.23;;;9.20;99.90;;;;;;5055685;27;20349;-85
2023/04/23 06:07:02;;;;;;;18.43;9.80;;;9.20;99.90;;;;;;5052394;27;20321;-85
2023/04/23 06:09:27;;;;;;;12.97;8.33;;;9.30;99.90;;;;;;5056014;28;20185;-85
2023/04/23 06:11:53;;;;;;;23.97;12.17;;;9.50;99.90;;;;;;5054640;28;20624;-85
2023/04/23 06:14:19;;;;;;;26.10;11.00;;;10.30;99.90;;;;;;5069965;28;20226;-84
2023/04/23 06:16:45;;;;;;;23.50;14.60;;;11.00;99.90;;;;;;5052022;28;20251;-86
2023/04/23 06:19:11;;;;;;;29.97;11.47;;;11.20;99.90;;;;;;5054431;27;20206;-85
2023/04/23 06:21:36;;;;;;;20.97;12.00;;;11.10;99.90;;;;;;5055580;28;20256;-85
2023/04/23 06:24:02;;;;;;;18.47;11.43;;;11.40;99.90;;;;;;5055396;27;20224;-85
2023/04/23 06:26:28;;;;;;;10.60;8.47;;;10.90;99.90;;;;;;5055349;27;20225;-85
2023/04/23 06:28:54;;;;;;;21.73;12.17;;;10.70;99.90;;;;;;5052519;28;20682;-86
2023/04/23 06:31:20;;;;;;;21.57;11.83;;;10.70;99.90;;;;;;5049733;27;20229;-84
2023/04/23 06:33:46;;;;;;;24.00;12.37;;;10.60;99.90;;;;;;5050653;28;20186;-85
2023/04/23 06:36:13;;;;;;;16.87;9.77;;;10.90;99.90;;;;;;5051408;27;20330;-85
2023/04/23 06:38:39;;;;;;;23.90;12.00;;;11.10;99.90;;;;;;5050768;28;20729;-84
2023/04/23 06:41:06;;;;;;;22.40;12.13;;;11.20;99.90;;;;;;5055128;28;20579;-84
2023/04/23 06:43:32;;;;;;;15.40;12.77;;;11.30;99.90;;;;;;5052902;27;20225;-83
2023/04/23 06:45:57;;;;;;;34.63;13.50;;;11.30;99.90;;;;;;5054305;28;20681;-83
2023/04/23 06:48:24;;;;;;;22.13;10.93;;;11.20;99.90;;;;;;5053956;28;20213;-84
2023/04/23 06:50:50;;;;;;;27.40;15.67;;;11.20;99.90;;;;;;5053355;27;20335;-84
2023/04/23 06:53:16;;;;;;;20.73;10.10;;;11.50;99.90;;;;;;5051834;28;20225;-83
2023/04/23 06:55:42;;;;;;;17.07;11.73;;;11.50;99.90;;;;;;5052625;28;20229;-86
2023/04/23 06:58:08;;;;;;;28.63;12.87;;;11.40;99.90;;;;;;5051343;27;20247;-84
2023/04/23 07:00:34;;;;;;;23.73;12.27;;;11.30;99.90;;;;;;5053348;28;20285;-84
2023/04/23 07:03:00;;;;;;;28.13;12.43;;;11.40;99.90;;;;;;5051816;28;20241;-82
2023/04/23 07:05:26;;;;;;;21.73;13.47;;;11.40;99.90;;;;;;5052133;27;20227;-85
2023/04/23 07:07:51;;;;;;;18.93;11.30;;;11.30;99.90;;;;;;5052632;28;20237;-84
2023/04/23 07:10:17;;;;;;;19.10;13.00;;;11.20;99.90;;;;;;5045744;27;20232;-84
2023/04/23 07:12:43;;;;;;;21.93;11.10;;;11.30;99.90;;;;;;5055067;28;20189;-84
2023/04/23 07:15:10;;;;;;;16.73;9.90;;;11.30;99.90;;;;;;5055954;27;20213;-84
2023/04/23 07:17:36;;;;;;;23.53;11.57;;;11.20;99.90;;;;;;5053898;27;20710;-83
2023/04/23 07:20:05;;;;;;;21.63;12.77;;;11.50;99.90;;;;;;5051892;28;20221;-84
2023/04/23 07:22:31;;;;;;;27.03;13.77;;;12.30;99.90;;;;;;5045305;28;20311;-84
2023/04/23 07:24:57;;;;;;;26.80;12.10;;;13.50;99.90;;;;;;5045352;28;20285;-86
2023/04/23 07:27:23;;;;;;;26.00;14.70;;;15.00;99.90;;;;;;5054617;28;20324;-84
2023/04/23 07:29:49;;;;;;;26.37;12.60;;;16.10;99.90;;;;;;5052381;27;20271;-84
2023/04/23 07:32:15;;;;;;;25.30;15.40;;;16.10;99.90;;;;;;5059980;28;20622;-85
2023/04/23 07:34:41;;;;;;;21.87;11.20;;;16.80;99.90;;;;;;5055657;27;21149;-84
2023/04/23 07:37:07;;;;;;;19.60;11.07;;;17.50;99.90;;;;;;5044317;28;20188;-85
2023/04/23 07:39:35;;;;;;;20.13;11.87;;;18.20;99.90;;;;;;5054290;28;20289;-84
2023/04/23 07:42:01;;;;;;;21.30;11.40;;;17.70;99.90;;;;;;5043514;28;20376;-83
2023/04/23 07:44:27;;;;;;;20.60;10.87;;;18.40;99.90;;;;;;5052515;28;20237;-85
2023/04/23 07:46:53;;;;;;;20.20;12.63;;;17.90;99.90;;;;;;5056486;28;20232;-84
2023/04/23 07:49:19;;;;;;;16.43;9.67;;;17.70;99.90;;;;;;5054938;27;20235;-84
2023/04/23 07:51:45;;;;;;;21.53;11.97;;;17.60;99.90;;;;;;5054896;28;20206;-84
2023/04/23 07:54:10;;;;;;;24.30;11.03;;;18.00;99.90;;;;;;5055011;28;21155;-85
2023/04/23 07:56:36;;;;;;;21.17;12.07;;;19.10;99.90;;;;;;5053892;28;20229;-83
2023/04/23 07:59:03;;;;;;;16.33;10.70;;;20.00;99.90;;;;;;5053017;28;21053;-84
2023/04/23 08:01:31;;;;;;;18.13;9.70;;;19.40;99.90;;;;;;5052954;28;20238;-84
2023/04/23 08:03:59;;;;;;;23.00;12.10;;;19.10;99.90;;;;;;5052149;28;20722;-83
2023/04/23 08:06:26;;;;;;;21.17;11.23;;;18.60;99.90;;;;;;5052786;28;20216;-84
2023/04/23 08:08:52;;;;;;;20.33;10.30;;;19.20;99.90;;;;;;5052828;27;20228;-84
2023/04/23 08:11:18;;;;;;;19.50;11.77;;;19.80;99.90;;;;;;5050862;28;20231;-84
2023/04/23 08:13:44;;;;;;;18.83;10.60;;;20.10;99.90;;;;;;5043708;28;20576;-86
2023/04/23 08:16:09;;;;;;;21.07;10.80;;;20.90;99.90;;;;;;5053324;27;21205;-84
2023/04/23 08:18:35;;;;;;;18.90;10.00;;;21.40;99.90;;;;;;5051791;28;20194;-85
2023/04/23 08:21:01;;;;;;;18.10;9.53;;;21.80;99.90;;;;;;5054298;27;20383;-84
2023/04/23 08:23:27;;;;;;;17.90;10.23;;;21.30;99.90;;;;;;5051896;28;20239;-86
2023/04/23 08:25:52;;;;;;;15.13;9.63;;;20.90;99.90;;;;;;5052830;28;20235;-85
2023/04/23 08:28:18;;;;;;;14.97;9.20;;;21.30;99.90;;;;;;5043865;27;20402;-85
2023/04/23 08:30:45;;;;;;;19.60;10.27;;;21.50;99.90;;;;;;5050031;28;20200;-85
2023/04/23 08:33:11;;;;;;;15.07;9.37;;;20.30;99.90;;;;;;5052285;28;21123;-87
2023/04/23 08:35:37;;;;;;;16.13;9.20;;;20.40;99.90;;;;;;5052553;28;20222;-85
2023/04/23 08:38:03;;;;;;;14.20;8.20;;;20.30;99.90;;;;;;5050047;28;20274;-85
2023/04/23 08:40:30;;;;;;;18.87;9.53;;;20.50;99.90;;;;;;5049664;28;20316;-84
2023/04/23 08:43:00;;;;;;;14.20;8.83;;;21.20;99.90;;;;;;5059010;28;20217;-84
2023/04/23 08:45:27;;;;;;;12.67;8.43;;;22.50;99.90;;;;;;5050170;28;20237;-85
2023/04/23 08:47:57;;;;;;;14.60;8.33;;;22.30;99.90;;;;;;5051501;27;20329;-85
2023/04/23 08:50:24;;;;;;;13.03;7.47;;;22.60;99.90;;;;;;5053153;27;20643;-85
2023/04/23 08:52:52;;;;;;;17.17;8.80;;;21.70;99.90;;;;;;5049083;28;20248;-85
2023/04/23 08:55:18;;;;;;;14.63;9.10;;;21.10;99.90;;;;;;5052424;28;20305;-85
2023/04/23 08:57:45;;;;;;;16.13;9.07;;;20.50;99.90;;;;;;5052173;28;20594;-85
2023/04/23 09:00:13;;;;;;;10.83;7.70;;;20.20;99.90;;;;;;5050048;28;20257;-84
2023/04/23 09:02:41;;;;;;;16.57;8.90;;;19.20;99.90;;;;;;5049024;28;20268;-85
2023/04/23 09:05:08;;;;;;;11.50;8.00;;;19.60;99.90;;;;;;5050481;27;20241;-83
2023/04/23 09:07:35;;;;;;;14.37;8.13;;;20.70;99.90;;;;;;5051139;28;21138;-84
2023/04/23 09:10:02;;;;;;;13.57;8.27;;;20.00;99.90;;;;;;5054766;27;20213;-87
2023/04/23 09:12:29;;;;;;;11.63;7.37;;;19.30;99.90;;;;;;5069625;28;20713;-85
2023/04/23 09:14:55;;;;;;;13.10;7.60;;;18.90;99.90;;;;;;5054373;27;20221;-85
2023/04/23 09:17:23;;;;;;;11.90;7.07;;;19.30;99.90;;;;;;5053111;28;20259;-85
2023/04/23 09:19:53;;;;;;;9.17;6.40;;;20.20;99.90;;;;;;5052426;28;20228;-84
2023/04/23 09:22:39;;;;;;;10.50;6.80;;;20.10;99.90;;;;;;5053800;28;20287;-86
2023/04/23 09:25:07;;;;;;;10.83;6.33;;;19.20;99.90;;;;;;5050830;28;20197;-85
2023/04/23 09:27:33;;;;;;;10.97;6.33;;;19.00;99.90;;;;;;5038462;28;20181;-86
2023/04/23 09:30:08;;;;;;;16.40;6.07;;;18.20;99.90;;;;;;5052336;28;20221;-84
2023/04/23 09:32:35;;;;;;;9.70;6.50;;;18.10;99.90;;;;;;5050606;28;20267;-87
2023/04/23 09:35:06;;;;;;;10.57;5.83;;;18.60;99.90;;;;;;5041471;28;21577;-85
2023/04/23 09:37:32;;;;;;;11.60;6.37;;;19.40;99.90;;;;;;5047893;28;20249;-86
2023/04/23 09:39:59;;;;;;;14.67;6.73;;;19.80;99.90;;;;;;5052117;28;20193;-85
2023/04/23 09:42:28;;;;;;;8.47;5.60;;;20.20;99.90;;;;;;5051940;28;20321;-88
2023/04/23 09:45:03;;;;;;;9.50;5.93;;;20.50;99.90;;;;;;5052460;28;20263;-84
2023/04/23 09:47:32;;;;;;;10.50;6.40;;;20.40;99.90;;;;;;5079928;28;20234;-85
2023/04/23 09:49:58;;;;;;;9.43;6.13;;;20.50;99.90;;;;;;5051214;27;20229;-87
2023/04/23 09:52:24;;;;;;;8.53;5.30;;;20.20;99.90;;;;;;5052334;28;20271;-86
2023/04/23 09:54:50;;;;;;;9.97;6.03;;;20.20;99.90;;;;;;5052501;28;20284;-85
2023/04/23 09:57:17;;;;;;;9.50;5.97;;;20.50;99.90;;;;;;5065506;28;20277;-84
2023/04/23 09:59:43;;;;;;;8.97;6.43;;;21.30;99.90;;;;;;5053719;28;20604;-84
2023/04/23 10:02:10;;;;;;;9.63;5.80;;;21.10;99.90;;;;;;5052521;28;20240;-85
2023/04/23 10:04:37;;;;;;;11.57;6.57;;;21.30;99.90;;;;;;5051556;28;20364;-85
2023/04/23 10:07:07;;;;;;;9.13;6.27;;;21.60;99.90;;;;;;5052101;27;20197;-84
2023/04/23 10:09:33;;;;;;;10.73;5.70;;;21.10;99.90;;;;;;5048082;28;20197;-85
2023/04/23 10:12:01;;;;;;;8.83;5.90;;;20.70;99.90;;;;;;5068660;28;20221;-84
2023/04/23 10:14:27;;;;;;;7.50;5.27;;;20.30;99.90;;;;;;5050224;28;20220;-85
2023/04/23 10:16:58;;;;;;;7.27;4.90;;;21.00;99.90;;;;;;5049841;28;20598;-85
2023/04/23 10:19:28;;;;;;;8.00;5.77;;;20.50;99.90;;;;;;5052800;28;20213;-84
2023/04/23 10:22:04;;;;;;;10.83;5.90;;;19.90;99.90;;;;;;5054582;28;20222;-84
2023/04/23 10:24:36;;;;;;;6.87;4.77;;;19.60;99.90;;;;;;5050818;28;20213;-84
2023/04/23 10:27:04;;;;;;;10.13;5.53;;;20.10;99.90;;;;;;5051100;28;20222;-84
2023/04/23 10:29:32;;;;;;;11.77;5.87;;;20.00;99.90;;;;;;5035947;28;20319;-84
2023/04/23 10:32:03;;;;;;;7.10;4.63;;;19.20;99.90;;;;;;5052442;28;20265;-84
2023/04/23 10:34:31;;;;;;;11.40;5.70;;;19.30;99.90;;;;;;5066543;28;20507;-87
2023/04/23 10:36:59;;;;;;;7.30;5.10;;;19.40;99.90;;;;;;5041434;28;20193;-85
2023/04/23 10:39:30;;;;;;;7.47;4.60;;;19.40;99.90;;;;;;5050275;28;20230;-83
2023/04/23 10:41:57;;;;;;;6.47;4.73;;;20.00;99.90;;;;;;5049819;28;20237;-86
2023/04/23 10:44:36;;;;;;;6.33;4.03;;;20.00;99.90;;;;;;5050139;28;20251;-86
2023/04/23 10:47:03;;;;;;;8.23;4.43;;;19.60;99.90;;;;;;5049932;28;20687;-85
2023/04/23 10:49:30;;;;;;;9.77;4.40;;;20.20;99.90;;;;;;5054734;28;20727;-86
2023/04/23 10:52:06;;;;;;;7.43;4.10;;;20.50;99.90;;;;;;5045751;28;20274;-87
2023/04/23 10:54:35;;;;;;;5.07;3.07;;;20.10;99.90;;;;;;5053797;28;20271;-86
2023/04/23 10:57:03;;;;;;;4.70;3.07;;;20.50;99.90;;;;;;5040672;28;20225;-88
2023/04/23 10:59:33;;;;;;;6.47;4.23;;;20.60;99.90;;;;;;5055240;28;20217;-87
2023/04/23 11:02:07;;;;;;;5.37;2.87;;;20.20;99.90;;;;;;5050299;28;20240;-87
2023/04/23 11:04:35;;;;;;;4.00;3.30;;;20.70;99.90;;;;;;5053103;28;20244;-86
2023/04/23 11:07:06;;;;;;;3.50;2.57;;;20.90;99.90;;;;;;5052843;27;20186;-86
2023/04/23 11:09:48;;;;;;;5.77;3.10;;;20.60;99.90;;;;;;5051396;28;20224;-85
2023/04/23 11:12:23;;;;;;;3.23;2.63;;;20.40;99.90;;;;;;5086288;27;20225;-85
2023/04/23 11:14:50;;;;;;;6.03;2.93;;;19.20;99.90;;;;;;5052394;27;20234;-85
2023/04/23 11:17:20;;;;;;;3.33;2.07;;;19.00;99.90;;;;;;5050529;28;20223;-88
2023/04/23 11:20:09;;;;;;;2.10;1.77;;;19.20;99.90;;;;;;5054314;27;20217;-86
2023/04/23 11:22:39;;;;;;;4.43;2.00;;;19.10;99.90;;;;;;5053101;27;20853;-86
2023/04/23 11:25:09;;;;;;;6.67;2.80;;;19.70;99.90;;;;;;5054212;27;20205;-89
2023/04/23 11:27:38;;;;;;;5.40;2.97;;;20.40;99.90;;;;;;5053238;28;20227;-86
2023/04/23 11:30:04;;;;;;;3.37;2.63;;;20.60;99.90;;;;;;5051843;27;20230;-86
2023/04/23 11:32:31;;;;;;;3.97;3.00;;;20.00;99.90;;;;;;5054224;28;20714;-85
2023/04/23 11:35:01;;;;;;;3.63;2.37;;;19.90;99.90;;;;;;5051200;28;20924;-86
2023/04/23 11:37:27;;;;;;;4.03;2.83;;;20.10;99.90;;;;;;5052188;28;20213;-88
2023/04/23 11:39:53;;;;;;;7.50;2.53;;;19.50;99.90;;;;;;5054580;28;20208;-85
2023/04/23 11:42:22;;;;;;;2.73;1.73;;;19.50;99.90;;;;;;5051315;28;20749;-88
2023/04/23 11:44:47;;;;;;;3.83;2.37;;;19.40;99.90;;;;;;5055972;27;20240;-87
2023/04/23 11:47:17;;;;;;;3.33;2.07;;;19.30;99.90;;;;;;5041747;28;20218;-85
2023/04/23 11:49:43;;;;;;;4.17;2.03;;;19.40;99.90;;;;;;5054546;27;20231;-85
2023/04/23 11:52:10;;;;;;;2.90;1.70;;;19.10;99.90;;;;;;5052610;28;20211;-86
2023/04/23 11:54:40;;;;;;;1.47;1.37;;;19.20;99.90;;;;;;5050939;28;21028;-85
2023/04/23 11:57:05;;;;;;;1.13;1.07;;;19.00;99.90;;;;;;5063017;27;20231;-85
2023/04/23 11:59:31;;;;;;;1.17;1.10;;;18.90;99.90;;;;;;5052975;28;20221;-86
2023/04/23 12:01:59;;;;;;;2.43;1.30;;;19.20;99.90;;;;;;5043462;28;20743;-86
2023/04/23 12:04:27;;;;;;;1.00;0.83;;;19.40;99.90;;;;;;5053181;28;20229;-85
2023/04/23 12:06:54;;;;;;;0.80;0.80;;;19.40;99.90;;;;;;5050388;28;20256;-86
2023/04/23 12:09:25;;;;;;;2.70;1.37;;;19.00;99.90;;;;;;5050839;28;20217;-85
2023/04/23 12:11:51;;;;;;;2.13;1.47;;;19.30;99.90;;;;;;5053180;27;20220;-85
2023/04/23 12:14:20;;;;;;;4.53;1.37;;;19.60;99.90;;;;;;5050542;28;20219;-87
2023/04/23 12:16:51;;;;;;;3.37;1.40;;;19.40;99.90;;;;;;5050795;27;20270;-87
2023/04/23 12:19:25;;;;;;;1.90;1.20;;;19.00;99.90;;;;;;5055275;28;20296;-86
2023/04/23 12:21:53;;;;;;;5.27;1.63;;;18.90;99.90;;;;;;5052394;27;20323;-85
2023/04/23 12:24:23;;;;;;;3.17;1.27;;;18.70;99.90;;;;;;5051595;28;20232;-87
2023/04/23 12:26:53;;;;;;;3.63;1.97;;;18.90;99.90;;;;;;5049469;28;20214;-85
2023/04/23 12:29:20;;;;;;;6.80;2.03;;;18.80;99.90;;;;;;5055651;27;20227;-85
2023/04/23 12:31:46;;;;;;;2.13;1.83;;;19.00;99.90;;;;;;5055894;27;20280;-85
2023/04/23 12:34:15;;;;;;;1.43;1.20;;;19.10;99.90;;;;;;5055974;28;20197;-85
2023/04/23 12:36:45;;;;;;;3.67;1.80;;;18.90;99.90;;;;;;5053305;28;20696;-85
2023/04/23 12:39:29;;;;;;;1.57;1.13;;;18.90;99.90;;;;;;5057177;28;20382;-85
2023/04/23 12:42:06;;;;;;;2.87;1.10;;;19.10;99.90;;;;;;5057200;28;20282;-85